sensor_id;sensor_type;location;lat;lon;timestamp;P1;durP1;ratioP1;P2;durP2;ratioP2
4674;SDS011;2351;50.812;12.872;2023-09-18T00:00:01;4.07;;;3.67;;
4674;SDS011;2351;50.812;12.872;2023-09-18T00:02:34;7.53;;;4.40;;
4674;SDS011;2351;50.812;12.872;2023-09-18T00:05:06;4.97;;;4.20;;
4674;SDS011;2351;50.812;12.872;2023-09-18T00:07:39;4.80;;;4.10;;
4674;SDS011;2351;50.812;12.872;2023-09-18T00:10:11;7.20;;;4.13;;
4674;SDS011;2351;50.812;12.872;2023-09-18T00:12:43;4.20;;;3.80;;
4674;SDS011;2351;50.812;12.872;2023-09-18T00:15:15;8.90;;;3.93;;
4674;SDS011;2351;50.812;12.872;2023-09-18T00:17:46;4.67;;;3.63;;
4674;SDS011;2351;50.812;12.872;2023-09-18T00:20:18;9.17;;;4.50;;
4674;SDS011;2351;50.812;12.872;2023-09-18T00:22:51;5.73;;;3.97;;
4674;SDS011;2351;50.812;12.872;2023-09-18T00:25:23;5.07;;;3.93;;
4674;SDS011;2351;50.812;12.872;2023-09-18T00:27:55;4.63;;;3.83;;
4674;SDS011;2351;50.812;12.872;2023-09-18T00:30:26;4.70;;;4.10;;
4674;SDS011;2351;50.812;12.872;2023-09-18T00:32:58;4.07;;;3.73;;
4674;SDS011;2351;50.812;12.872;2023-09-18T00:35:30;4.17;;;3.77;;
4674;SDS011;2351;50.812;12.872;2023-09-18T00:38:03;4.77;;;4.17;;
4674;SDS011;2351;50.812;12.872;2023-09-18T00:40:37;4.23;;;3.93;;
4674;SDS011;2351;50.812;12.872;2023-09-18T00:43:09;5.60;;;4.10;;
4674;SDS011;2351;50.812;12.872;2023-09-18T00:45:42;6.23;;;4.50;;
4674;SDS011;2351;50.812;12.872;2023-09-18T00:48:16;8.83;;;4.60;;
4674;SDS011;2351;50.812;12.872;2023-09-18T00:50:48;7.00;;;4.80;;
4674;SDS011;2351;50.812;12.872;2023-09-18T00:53:22;5.93;;;4.27;;
4674;SDS011;2351;50.812;12.872;2023-09-18T00:55:57;6.23;;;4.57;;
4674;SDS011;2351;50.812;12.872;2023-09-18T00:58:31;6.40;;;5.10;;
4674;SDS011;2351;50.812;12.872;2023-09-18T01:01:04;8.80;;;5.50;;
4674;SDS011;2351;50.812;12.872;2023-09-18T01:03:36;13.13;;;5.00;;
4674;SDS011;2351;50.812;12.872;2023-09-18T01:06:08;6.43;;;4.50;;
4674;SDS011;2351;50.812;12.872;2023-09-18T01:08:41;6.90;;;4.90;;
4674;SDS011;2351;50.812;12.872;2023-09-18T01:11:14;5.70;;;4.77;;
4674;SDS011;2351;50.812;12.872;2023-09-18T01:13:58;7.27;;;5.27;;
4674;SDS011;2351;50.812;12.872;2023-09-18T01:16:36;6.70;;;4.90;;
4674;SDS011;2351;50.812;12.872;2023-09-18T01:19:13;6.83;;;5.07;;
4674;SDS011;2351;50.812;12.872;2023-09-18T01:21:45;5.40;;;4.70;;
4674;SDS011;2351;50.812;12.872;2023-09-18T01:24:18;4.90;;;4.00;;
4674;SDS011;2351;50.812;12.872;2023-09-18T01:26:50;5.53;;;4.57;;
4674;SDS011;2351;50.812;12.872;2023-09-18T01:29:22;7.30;;;5.10;;
4674;SDS011;2351;50.812;12.872;2023-09-18T01:31:54;7.23;;;5.03;;
4674;SDS011;2351;50.812;12.872;2023-09-18T01:34:26;5.30;;;4.80;;
4674;SDS011;2351;50.812;12.872;2023-09-18T01:37:03;5.60;;;4.87;;
4674;SDS011;2351;50.812;12.872;2023-09-18T01:39:38;4.63;;;4.13;;
4674;SDS011;2351;50.812;12.872;2023-09-18T01:42:10;7.57;;;5.13;;
4674;SDS011;2351;50.812;12.872;2023-09-18T01:44:42;5.63;;;5.07;;
4674;SDS011;2351;50.812;12.872;2023-09-18T01:47:15;5.20;;;4.50;;
4674;SDS011;2351;50.812;12.872;2023-09-18T01:49:49;8.10;;;5.17;;
4674;SDS011;2351;50.812;12.872;2023-09-18T01:52:21;7.73;;;5.20;;
4674;SDS011;2351;50.812;12.872;2023-09-18T01:54:54;6.23;;;5.40;;
4674;SDS011;2351;50.812;12.872;2023-09-18T01:57:26;5.80;;;4.60;;
4674;SDS011;2351;50.812;12.872;2023-09-18T01:59:57;5.73;;;5.10;;
4674;SDS011;2351;50.812;12.872;2023-09-18T02:02:29;6.20;;;4.47;;
4674;SDS011;2351;50.812;12.872;2023-09-18T02:05:01;5.37;;;4.83;;
4674;SDS011;2351;50.812;12.872;2023-09-18T02:07:33;8.07;;;5.30;;
4674;SDS011;2351;50.812;12.872;2023-09-18T02:10:07;18.13;;;5.70;;
4674;SDS011;2351;50.812;12.872;2023-09-18T02:12:39;5.30;;;4.80;;
4674;SDS011;2351;50.812;12.872;2023-09-18T02:15:11;6.37;;;5.00;;
4674;SDS011;2351;50.812;12.872;2023-09-18T02:17:42;5.43;;;4.93;;
4674;SDS011;2351;50.812;12.872;2023-09-18T02:20:14;6.13;;;4.90;;
4674;SDS011;2351;50.812;12.872;2023-09-18T02:22:48;5.03;;;4.50;;
4674;SDS011;2351;50.812;12.872;2023-09-18T02:25:21;8.90;;;4.50;;
4674;SDS011;2351;50.812;12.872;2023-09-18T02:27:53;5.57;;;4.50;;
4674;SDS011;2351;50.812;12.872;2023-09-18T02:30:25;7.60;;;5.47;;
4674;SDS011;2351;50.812;12.872;2023-09-18T02:32:57;7.40;;;4.60;;
4674;SDS011;2351;50.812;12.872;2023-09-18T02:35:29;5.50;;;5.00;;
4674;SDS011;2351;50.812;12.872;2023-09-18T02:38:01;6.27;;;4.90;;
4674;SDS011;2351;50.812;12.872;2023-09-18T02:40:34;7.43;;;5.10;;
4674;SDS011;2351;50.812;12.872;2023-09-18T02:43:06;5.13;;;4.63;;
4674;SDS011;2351;50.812;12.872;2023-09-18T02:45:39;8.17;;;5.20;;
4674;SDS011;2351;50.812;12.872;2023-09-18T02:48:11;5.77;;;4.70;;
4674;SDS011;2351;50.812;12.872;2023-09-18T02:50:42;5.30;;;4.73;;
4674;SDS011;2351;50.812;12.872;2023-09-18T02:53:17;5.80;;;5.20;;
4674;SDS011;2351;50.812;12.872;2023-09-18T02:55:52;7.90;;;4.93;;
4674;SDS011;2351;50.812;12.872;2023-09-18T02:58:24;7.33;;;5.60;;
4674;SDS011;2351;50.812;12.872;2023-09-18T03:00:59;7.77;;;6.10;;
4674;SDS011;2351;50.812;12.872;2023-09-18T03:03:33;10.33;;;4.93;;
4674;SDS011;2351;50.812;12.872;2023-09-18T03:06:05;7.43;;;5.43;;
4674;SDS011;2351;50.812;12.872;2023-09-18T03:08:36;10.00;;;6.10;;
4674;SDS011;2351;50.812;12.872;2023-09-18T03:11:13;7.50;;;5.13;;
4674;SDS011;2351;50.812;12.872;2023-09-18T03:13:46;6.50;;;5.50;;
4674;SDS011;2351;50.812;12.872;2023-09-18T03:16:18;8.67;;;5.73;;
4674;SDS011;2351;50.812;12.872;2023-09-18T03:18:50;7.80;;;5.50;;
4674;SDS011;2351;50.812;12.872;2023-09-18T03:21:21;11.87;;;4.80;;
4674;SDS011;2351;50.812;12.872;2023-09-18T03:23:53;5.20;;;4.50;;
4674;SDS011;2351;50.812;12.872;2023-09-18T03:26:26;8.83;;;5.93;;
4674;SDS011;2351;50.812;12.872;2023-09-18T03:28:58;5.17;;;4.40;;
4674;SDS011;2351;50.812;12.872;2023-09-18T03:31:30;4.77;;;4.30;;
4674;SDS011;2351;50.812;12.872;2023-09-18T03:34:01;6.00;;;4.30;;
4674;SDS011;2351;50.812;12.872;2023-09-18T03:36:33;7.60;;;4.30;;
4674;SDS011;2351;50.812;12.872;2023-09-18T03:39:05;4.33;;;3.93;;
4674;SDS011;2351;50.812;12.872;2023-09-18T03:41:38;4.70;;;4.30;;
4674;SDS011;2351;50.812;12.872;2023-09-18T03:44:10;7.80;;;5.03;;
4674;SDS011;2351;50.812;12.872;2023-09-18T03:46:41;17.03;;;6.13;;
4674;SDS011;2351;50.812;12.872;2023-09-18T03:49:13;14.20;;;5.90;;
4674;SDS011;2351;50.812;12.872;2023-09-18T03:51:45;8.30;;;4.57;;
4674;SDS011;2351;50.812;12.872;2023-09-18T03:54:17;7.00;;;4.60;;
4674;SDS011;2351;50.812;12.872;2023-09-18T03:56:50;14.27;;;5.20;;
4674;SDS011;2351;50.812;12.872;2023-09-18T03:59:21;5.83;;;4.97;;
4674;SDS011;2351;50.812;12.872;2023-09-18T04:01:53;8.27;;;5.40;;
4674;SDS011;2351;50.812;12.872;2023-09-18T04:04:25;6.00;;;5.40;;
4674;SDS011;2351;50.812;12.872;2023-09-18T04:06:58;8.17;;;5.27;;
4674;SDS011;2351;50.812;12.872;2023-09-18T04:09:30;8.20;;;4.70;;
4674;SDS011;2351;50.812;12.872;2023-09-18T04:12:03;6.20;;;5.07;;
4674;SDS011;2351;50.812;12.872;2023-09-18T04:14:36;5.70;;;5.20;;
4674;SDS011;2351;50.812;12.872;2023-09-18T04:17:07;5.93;;;5.33;;
4674;SDS011;2351;50.812;12.872;2023-09-18T04:19:39;7.67;;;4.93;;
4674;SDS011;2351;50.812;12.872;2023-09-18T04:22:11;7.50;;;4.67;;
4674;SDS011;2351;50.812;12.872;2023-09-18T04:24:43;7.40;;;5.53;;
4674;SDS011;2351;50.812;12.872;2023-09-18T04:27:16;11.57;;;5.27;;
4674;SDS011;2351;50.812;12.872;2023-09-18T04:29:48;9.67;;;5.40;;
4674;SDS011;2351;50.812;12.872;2023-09-18T04:32:20;6.57;;;5.40;;
4674;SDS011;2351;50.812;12.872;2023-09-18T04:34:53;5.60;;;5.00;;
4674;SDS011;2351;50.812;12.872;2023-09-18T04:37:25;8.87;;;5.53;;
4674;SDS011;2351;50.812;12.872;2023-09-18T04:39:57;7.10;;;4.50;;
4674;SDS011;2351;50.812;12.872;2023-09-18T04:42:30;6.17;;;4.97;;
4674;SDS011;2351;50.812;12.872;2023-09-18T04:45:02;11.10;;;5.47;;
4674;SDS011;2351;50.812;12.872;2023-09-18T04:47:35;9.40;;;5.20;;
4674;SDS011;2351;50.812;12.872;2023-09-18T04:50:07;7.67;;;5.80;;
4674;SDS011;2351;50.812;12.872;2023-09-18T04:52:40;7.33;;;4.97;;
4674;SDS011;2351;50.812;12.872;2023-09-18T04:55:12;6.80;;;4.93;;
4674;SDS011;2351;50.812;12.872;2023-09-18T04:57:47;8.33;;;5.07;;
4674;SDS011;2351;50.812;12.872;2023-09-18T05:00:19;6.57;;;4.60;;
4674;SDS011;2351;50.812;12.872;2023-09-18T05:02:53;7.00;;;5.13;;
4674;SDS011;2351;50.812;12.872;2023-09-18T05:05:25;6.30;;;5.27;;
4674;SDS011;2351;50.812;12.872;2023-09-18T05:07:56;11.03;;;5.50;;
4674;SDS011;2351;50.812;12.872;2023-09-18T05:10:28;7.57;;;6.17;;
4674;SDS011;2351;50.812;12.872;2023-09-18T05:13:02;6.03;;;5.30;;
4674;SDS011;2351;50.812;12.872;2023-09-18T05:15:34;6.80;;;5.37;;
4674;SDS011;2351;50.812;12.872;2023-09-18T05:18:06;7.10;;;5.53;;
4674;SDS011;2351;50.812;12.872;2023-09-18T05:20:38;5.80;;;5.20;;
4674;SDS011;2351;50.812;12.872;2023-09-18T05:23:11;9.87;;;6.30;;
4674;SDS011;2351;50.812;12.872;2023-09-18T05:25:42;10.70;;;5.87;;
4674;SDS011;2351;50.812;12.872;2023-09-18T05:28:16;10.00;;;4.73;;
4674;SDS011;2351;50.812;12.872;2023-09-18T05:30:47;9.13;;;5.93;;
4674;SDS011;2351;50.812;12.872;2023-09-18T05:33:19;8.23;;;5.97;;
4674;SDS011;2351;50.812;12.872;2023-09-18T05:35:51;10.13;;;5.80;;
4674;SDS011;2351;50.812;12.872;2023-09-18T05:38:22;8.70;;;6.57;;
4674;SDS011;2351;50.812;12.872;2023-09-18T05:40:54;11.30;;;6.80;;
4674;SDS011;2351;50.812;12.872;2023-09-18T05:43:27;9.83;;;6.23;;
4674;SDS011;2351;50.812;12.872;2023-09-18T05:46:00;22.90;;;5.80;;
4674;SDS011;2351;50.812;12.872;2023-09-18T05:48:32;11.23;;;5.87;;
4674;SDS011;2351;50.812;12.872;2023-09-18T05:51:03;7.20;;;5.80;;
4674;SDS011;2351;50.812;12.872;2023-09-18T05:53:35;8.20;;;5.73;;
4674;SDS011;2351;50.812;12.872;2023-09-18T05:56:08;9.77;;;6.03;;
4674;SDS011;2351;50.812;12.872;2023-09-18T05:58:41;12.90;;;6.57;;
4674;SDS011;2351;50.812;12.872;2023-09-18T06:01:13;8.33;;;5.70;;
4674;SDS011;2351;50.812;12.872;2023-09-18T06:03:44;10.10;;;6.50;;
4674;SDS011;2351;50.812;12.872;2023-09-18T06:06:17;6.77;;;5.67;;
4674;SDS011;2351;50.812;12.872;2023-09-18T06:08:49;9.30;;;5.57;;
4674;SDS011;2351;50.812;12.872;2023-09-18T06:11:23;6.27;;;5.40;;
4674;SDS011;2351;50.812;12.872;2023-09-18T06:13:56;8.83;;;5.67;;
4674;SDS011;2351;50.812;12.872;2023-09-18T06:16:28;6.10;;;5.10;;
4674;SDS011;2351;50.812;12.872;2023-09-18T06:19:01;4.50;;;4.03;;
4674;SDS011;2351;50.812;12.872;2023-09-18T06:21:32;10.83;;;4.50;;
4674;SDS011;2351;50.812;12.872;2023-09-18T06:24:04;5.00;;;4.50;;
4674;SDS011;2351;50.812;12.872;2023-09-18T06:26:37;10.63;;;5.10;;
4674;SDS011;2351;50.812;12.872;2023-09-18T06:29:10;6.07;;;4.50;;
4674;SDS011;2351;50.812;12.872;2023-09-18T06:31:42;4.20;;;3.80;;
4674;SDS011;2351;50.812;12.872;2023-09-18T06:34:13;4.33;;;4.00;;
4674;SDS011;2351;50.812;12.872;2023-09-18T06:36:45;10.90;;;4.30;;
4674;SDS011;2351;50.812;12.872;2023-09-18T06:39:17;4.40;;;4.00;;
4674;SDS011;2351;50.812;12.872;2023-09-18T06:41:50;6.80;;;3.90;;
4674;SDS011;2351;50.812;12.872;2023-09-18T06:44:23;7.53;;;4.30;;
4674;SDS011;2351;50.812;12.872;2023-09-18T06:46:55;6.57;;;4.37;;
4674;SDS011;2351;50.812;12.872;2023-09-18T06:49:27;5.10;;;4.07;;
4674;SDS011;2351;50.812;12.872;2023-09-18T06:51:58;4.73;;;4.13;;
4674;SDS011;2351;50.812;12.872;2023-09-18T06:54:30;6.53;;;4.37;;
4674;SDS011;2351;50.812;12.872;2023-09-18T06:57:02;4.50;;;4.10;;
4674;SDS011;2351;50.812;12.872;2023-09-18T06:59:35;4.20;;;3.90;;
4674;SDS011;2351;50.812;12.872;2023-09-18T07:02:07;4.63;;;4.17;;
4674;SDS011;2351;50.812;12.872;2023-09-18T07:04:39;4.57;;;4.00;;
4674;SDS011;2351;50.812;12.872;2023-09-18T07:07:14;3.67;;;3.37;;
4674;SDS011;2351;50.812;12.872;2023-09-18T07:09:47;3.80;;;3.50;;
4674;SDS011;2351;50.812;12.872;2023-09-18T07:12:19;3.77;;;3.47;;
4674;SDS011;2351;50.812;12.872;2023-09-18T07:14:52;5.37;;;3.87;;
4674;SDS011;2351;50.812;12.872;2023-09-18T07:17:24;3.80;;;3.50;;
4674;SDS011;2351;50.812;12.872;2023-09-18T07:19:56;4.60;;;4.20;;
4674;SDS011;2351;50.812;12.872;2023-09-18T07:22:27;4.20;;;3.80;;
4674;SDS011;2351;50.812;12.872;2023-09-18T07:24:59;3.93;;;3.63;;
4674;SDS011;2351;50.812;12.872;2023-09-18T07:27:31;4.83;;;3.50;;
4674;SDS011;2351;50.812;12.872;2023-09-18T07:30:05;10.00;;;3.73;;
4674;SDS011;2351;50.812;12.872;2023-09-18T07:32:39;4.33;;;3.93;;
4674;SDS011;2351;50.812;12.872;2023-09-18T07:35:12;5.23;;;3.90;;
4674;SDS011;2351;50.812;12.872;2023-09-18T07:37:44;6.13;;;3.47;;
4674;SDS011;2351;50.812;12.872;2023-09-18T07:40:16;3.70;;;3.40;;
4674;SDS011;2351;50.812;12.872;2023-09-18T07:42:48;4.00;;;3.60;;
4674;SDS011;2351;50.812;12.872;2023-09-18T07:45:22;3.80;;;3.50;;
4674;SDS011;2351;50.812;12.872;2023-09-18T07:47:54;3.50;;;3.23;;
4674;SDS011;2351;50.812;12.872;2023-09-18T07:50:26;5.53;;;3.67;;
4674;SDS011;2351;50.812;12.872;2023-09-18T07:52:58;13.37;;;4.13;;
4674;SDS011;2351;50.812;12.872;2023-09-18T07:55:30;3.70;;;3.40;;
4674;SDS011;2351;50.812;12.872;2023-09-18T07:58:02;5.10;;;3.47;;
4674;SDS011;2351;50.812;12.872;2023-09-18T08:00:36;3.60;;;3.30;;
4674;SDS011;2351;50.812;12.872;2023-09-18T08:03:08;8.07;;;3.60;;
4674;SDS011;2351;50.812;12.872;2023-09-18T08:05:40;2.97;;;2.77;;
4674;SDS011;2351;50.812;12.872;2023-09-18T08:08:12;5.00;;;3.47;;
4674;SDS011;2351;50.812;12.872;2023-09-18T08:10:43;3.47;;;3.17;;
4674;SDS011;2351;50.812;12.872;2023-09-18T08:13:15;6.03;;;3.10;;
4674;SDS011;2351;50.812;12.872;2023-09-18T08:15:49;3.60;;;3.17;;
4674;SDS011;2351;50.812;12.872;2023-09-18T08:18:21;3.30;;;2.80;;
4674;SDS011;2351;50.812;12.872;2023-09-18T08:20:56;2.80;;;2.60;;
4674;SDS011;2351;50.812;12.872;2023-09-18T08:23:28;5.23;;;3.17;;
4674;SDS011;2351;50.812;12.872;2023-09-18T08:26:02;2.77;;;2.40;;
4674;SDS011;2351;50.812;12.872;2023-09-18T08:28:34;3.73;;;3.00;;
4674;SDS011;2351;50.812;12.872;2023-09-18T08:31:11;8.47;;;3.00;;
4674;SDS011;2351;50.812;12.872;2023-09-18T08:33:44;6.43;;;3.57;;
4674;SDS011;2351;50.812;12.872;2023-09-18T08:36:16;20.73;;;3.50;;
4674;SDS011;2351;50.812;12.872;2023-09-18T08:38:47;5.47;;;2.80;;
4674;SDS011;2351;50.812;12.872;2023-09-18T08:41:19;3.50;;;3.17;;
4674;SDS011;2351;50.812;12.872;2023-09-18T08:43:52;4.40;;;2.67;;
4674;SDS011;2351;50.812;12.872;2023-09-18T08:46:27;3.23;;;2.47;;
4674;SDS011;2351;50.812;12.872;2023-09-18T08:48:59;2.67;;;2.57;;
4674;SDS011;2351;50.812;12.872;2023-09-18T08:51:32;2.60;;;2.40;;
4674;SDS011;2351;50.812;12.872;2023-09-18T08:54:05;3.37;;;2.47;;
4674;SDS011;2351;50.812;12.872;2023-09-18T08:56:37;2.33;;;2.13;;
4674;SDS011;2351;50.812;12.872;2023-09-18T08:59:09;2.60;;;2.40;;
4674;SDS011;2351;50.812;12.872;2023-09-18T09:01:45;5.33;;;2.87;;
4674;SDS011;2351;50.812;12.872;2023-09-18T09:04:16;3.47;;;2.30;;
4674;SDS011;2351;50.812;12.872;2023-09-18T09:06:48;2.87;;;2.40;;
4674;SDS011;2351;50.812;12.872;2023-09-18T09:09:20;3.90;;;2.20;;
4674;SDS011;2351;50.812;12.872;2023-09-18T09:11:52;2.43;;;2.23;;
4674;SDS011;2351;50.812;12.872;2023-09-18T09:14:23;3.10;;;2.43;;
4674;SDS011;2351;50.812;12.872;2023-09-18T10:56:25;7.60;;;2.50;;
4674;SDS011;2351;50.812;12.872;2023-09-18T10:58:58;8.57;;;2.43;;
4674;SDS011;2351;50.812;12.872;2023-09-18T11:01:30;5.53;;;2.60;;
4674;SDS011;2351;50.812;12.872;2023-09-18T11:04:03;9.80;;;2.70;;
4674;SDS011;2351;50.812;12.872;2023-09-18T11:09:40;11.77;;;2.87;;
4674;SDS011;2351;50.812;12.872;2023-09-18T11:12:15;11.20;;;2.87;;
4674;SDS011;2351;50.812;12.872;2023-09-18T11:14:49;16.20;;;3.77;;
4674;SDS011;2351;50.812;12.872;2023-09-18T11:17:31;11.47;;;2.50;;
4674;SDS011;2351;50.812;12.872;2023-09-18T11:20:08;8.10;;;2.47;;
4674;SDS011;2351;50.812;12.872;2023-09-18T11:22:46;9.13;;;2.53;;
4674;SDS011;2351;50.812;12.872;2023-09-18T11:28:24;12.97;;;2.73;;
4674;SDS011;2351;50.812;12.872;2023-09-18T11:30:57;6.93;;;2.37;;
4674;SDS011;2351;50.812;12.872;2023-09-18T11:33:31;5.93;;;2.80;;
4674;SDS011;2351;50.812;12.872;2023-09-18T11:36:07;9.20;;;2.60;;
4674;SDS011;2351;50.812;12.872;2023-09-18T11:38:52;6.10;;;2.57;;
4674;SDS011;2351;50.812;12.872;2023-09-18T11:41:25;6.70;;;2.50;;
4674;SDS011;2351;50.812;12.872;2023-09-18T11:47:11;10.63;;;3.10;;
4674;SDS011;2351;50.812;12.872;2023-09-18T11:49:47;11.60;;;2.40;;
4674;SDS011;2351;50.812;12.872;2023-09-18T11:52:24;10.83;;;2.60;;
4674;SDS011;2351;50.812;12.872;2023-09-18T11:54:57;7.43;;;2.20;;
4674;SDS011;2351;50.812;12.872;2023-09-18T11:57:35;7.97;;;2.53;;
4674;SDS011;2351;50.812;12.872;2023-09-18T12:00:19;19.50;;;3.60;;
4674;SDS011;2351;50.812;12.872;2023-09-18T12:02:54;7.13;;;2.70;;
4674;SDS011;2351;50.812;12.872;2023-09-18T12:05:26;5.97;;;2.80;;
4674;SDS011;2351;50.812;12.872;2023-09-18T12:07:57;8.50;;;3.13;;
4674;SDS011;2351;50.812;12.872;2023-09-18T12:10:29;9.27;;;2.30;;
4674;SDS011;2351;50.812;12.872;2023-09-18T12:13:02;17.93;;;2.73;;
4674;SDS011;2351;50.812;12.872;2023-09-18T12:15:39;4.77;;;2.50;;
4674;SDS011;2351;50.812;12.872;2023-09-18T12:18:11;11.53;;;2.47;;
4674;SDS011;2351;50.812;12.872;2023-09-18T12:20:46;8.33;;;3.50;;
4674;SDS011;2351;50.812;12.872;2023-09-18T12:23:18;4.03;;;2.20;;
4674;SDS011;2351;50.812;12.872;2023-09-18T12:25:50;15.80;;;3.40;;
4674;SDS011;2351;50.812;12.872;2023-09-18T12:28:29;12.13;;;2.90;;
4674;SDS011;2351;50.812;12.872;2023-09-18T12:31:02;9.23;;;2.73;;
4674;SDS011;2351;50.812;12.872;2023-09-18T12:33:36;14.33;;;3.00;;
4674;SDS011;2351;50.812;12.872;2023-09-18T12:36:09;10.47;;;3.30;;
4674;SDS011;2351;50.812;12.872;2023-09-18T12:38:45;8.93;;;2.73;;
4674;SDS011;2351;50.812;12.872;2023-09-18T12:41:26;13.40;;;3.10;;
4674;SDS011;2351;50.812;12.872;2023-09-18T12:44:00;8.93;;;3.20;;
4674;SDS011;2351;50.812;12.872;2023-09-18T12:46:35;11.87;;;3.03;;
4674;SDS011;2351;50.812;12.872;2023-09-18T12:49:17;5.10;;;2.50;;
4674;SDS011;2351;50.812;12.872;2023-09-18T12:51:56;7.07;;;2.70;;
4674;SDS011;2351;50.812;12.872;2023-09-18T12:54:41;8.73;;;3.30;;
4674;SDS011;2351;50.812;12.872;2023-09-18T12:57:15;6.07;;;3.30;;
4674;SDS011;2351;50.812;12.872;2023-09-18T12:59:47;7.57;;;3.20;;
4674;SDS011;2351;50.812;12.872;2023-09-18T13:02:22;8.60;;;2.67;;
4674;SDS011;2351;50.812;12.872;2023-09-18T13:04:55;12.23;;;2.43;;
4674;SDS011;2351;50.812;12.872;2023-09-18T13:07:28;13.20;;;2.20;;
4674;SDS011;2351;50.812;12.872;2023-09-18T13:10:03;6.27;;;2.60;;
4674;SDS011;2351;50.812;12.872;2023-09-18T13:12:40;5.63;;;2.47;;
4674;SDS011;2351;50.812;12.872;2023-09-18T13:15:13;11.73;;;2.30;;
4674;SDS011;2351;50.812;12.872;2023-09-18T13:17:46;7.10;;;2.73;;
4674;SDS011;2351;50.812;12.872;2023-09-18T13:20:20;4.63;;;2.63;;
4674;SDS011;2351;50.812;12.872;2023-09-18T13:22:55;6.03;;;2.30;;
4674;SDS011;2351;50.812;12.872;2023-09-18T13:25:29;6.83;;;2.73;;
4674;SDS011;2351;50.812;12.872;2023-09-18T13:28:04;8.90;;;2.40;;
4674;SDS011;2351;50.812;12.872;2023-09-18T13:30:38;12.50;;;2.37;;
4674;SDS011;2351;50.812;12.872;2023-09-18T13:33:13;3.83;;;2.10;;
4674;SDS011;2351;50.812;12.872;2023-09-18T13:35:48;5.80;;;2.30;;
4674;SDS011;2351;50.812;12.872;2023-09-18T13:38:20;3.60;;;2.07;;
4674;SDS011;2351;50.812;12.872;2023-09-18T13:40:52;6.60;;;2.13;;
4674;SDS011;2351;50.812;12.872;2023-09-18T13:43:24;3.30;;;1.80;;
4674;SDS011;2351;50.812;12.872;2023-09-18T13:45:57;10.20;;;2.37;;
4674;SDS011;2351;50.812;12.872;2023-09-18T13:48:31;2.50;;;1.83;;
4674;SDS011;2351;50.812;12.872;2023-09-18T13:51:03;11.93;;;2.17;;
4674;SDS011;2351;50.812;12.872;2023-09-18T13:53:35;20.23;;;2.20;;
4674;SDS011;2351;50.812;12.872;2023-09-18T13:56:08;4.60;;;1.77;;
4674;SDS011;2351;50.812;12.872;2023-09-18T13:58:40;6.00;;;1.77;;
4674;SDS011;2351;50.812;12.872;2023-09-18T14:01:11;4.30;;;1.87;;
4674;SDS011;2351;50.812;12.872;2023-09-18T14:03:47;2.70;;;1.60;;
4674;SDS011;2351;50.812;12.872;2023-09-18T14:06:18;4.60;;;1.50;;
4674;SDS011;2351;50.812;12.872;2023-09-18T14:08:50;6.90;;;1.90;;
4674;SDS011;2351;50.812;12.872;2023-09-18T14:11:22;2.30;;;1.77;;
4674;SDS011;2351;50.812;12.872;2023-09-18T14:13:54;5.27;;;2.00;;
4674;SDS011;2351;50.812;12.872;2023-09-18T14:16:25;5.97;;;1.83;;
4674;SDS011;2351;50.812;12.872;2023-09-18T14:18:59;5.87;;;2.80;;
4674;SDS011;2351;50.812;12.872;2023-09-18T14:21:30;2.33;;;1.70;;
4674;SDS011;2351;50.812;12.872;2023-09-18T14:24:04;10.40;;;1.83;;
4674;SDS011;2351;50.812;12.872;2023-09-18T14:26:36;6.90;;;2.10;;
4674;SDS011;2351;50.812;12.872;2023-09-18T14:29:11;2.83;;;2.07;;
4674;SDS011;2351;50.812;12.872;2023-09-18T14:31:43;5.67;;;1.73;;
4674;SDS011;2351;50.812;12.872;2023-09-18T14:34:17;4.70;;;2.23;;
4674;SDS011;2351;50.812;12.872;2023-09-18T14:36:49;6.93;;;1.90;;
4674;SDS011;2351;50.812;12.872;2023-09-18T14:39:20;4.60;;;2.03;;
4674;SDS011;2351;50.812;12.872;2023-09-18T14:41:52;7.97;;;2.17;;
4674;SDS011;2351;50.812;12.872;2023-09-18T14:44:24;9.03;;;1.67;;
4674;SDS011;2351;50.812;12.872;2023-09-18T14:46:56;3.27;;;1.70;;
4674;SDS011;2351;50.812;12.872;2023-09-18T14:49:29;3.37;;;2.50;;
4674;SDS011;2351;50.812;12.872;2023-09-18T14:52:00;3.20;;;1.87;;
4674;SDS011;2351;50.812;12.872;2023-09-18T14:54:33;4.30;;;1.60;;
4674;SDS011;2351;50.812;12.872;2023-09-18T14:57:05;5.57;;;2.10;;
4674;SDS011;2351;50.812;12.872;2023-09-18T14:59:36;7.60;;;2.43;;
4674;SDS011;2351;50.812;12.872;2023-09-18T15:02:09;13.57;;;2.43;;
4674;SDS011;2351;50.812;12.872;2023-09-18T15:04:43;4.23;;;1.70;;
4674;SDS011;2351;50.812;12.872;2023-09-18T15:07:15;2.70;;;1.67;;
4674;SDS011;2351;50.812;12.872;2023-09-18T15:09:47;3.87;;;1.80;;
4674;SDS011;2351;50.812;12.872;2023-09-18T15:12:19;8.70;;;2.80;;
4674;SDS011;2351;50.812;12.872;2023-09-18T15:14:50;3.77;;;2.20;;
4674;SDS011;2351;50.812;12.872;2023-09-18T15:17:22;4.30;;;2.10;;
4674;SDS011;2351;50.812;12.872;2023-09-18T15:19:57;10.83;;;2.70;;
4674;SDS011;2351;50.812;12.872;2023-09-18T15:22:28;7.03;;;2.20;;
4674;SDS011;2351;50.812;12.872;2023-09-18T15:25:00;10.03;;;2.17;;
4674;SDS011;2351;50.812;12.872;2023-09-18T15:27:32;9.50;;;2.50;;
4674;SDS011;2351;50.812;12.872;2023-09-18T15:30:04;10.53;;;3.13;;
4674;SDS011;2351;50.812;12.872;2023-09-18T15:32:45;6.73;;;2.90;;
4674;SDS011;2351;50.812;12.872;2023-09-18T15:35:20;6.73;;;2.70;;
4674;SDS011;2351;50.812;12.872;2023-09-18T15:37:54;5.20;;;2.47;;
4674;SDS011;2351;50.812;12.872;2023-09-18T15:40:26;9.53;;;2.90;;
4674;SDS011;2351;50.812;12.872;2023-09-18T15:42:58;8.90;;;2.63;;
4674;SDS011;2351;50.812;12.872;2023-09-18T15:45:30;4.60;;;2.07;;
4674;SDS011;2351;50.812;12.872;2023-09-18T15:48:02;5.50;;;2.30;;
4674;SDS011;2351;50.812;12.872;2023-09-18T15:50:36;5.07;;;1.87;;
4674;SDS011;2351;50.812;12.872;2023-09-18T15:53:07;6.10;;;1.70;;
4674;SDS011;2351;50.812;12.872;2023-09-18T15:55:39;3.37;;;1.73;;
4674;SDS011;2351;50.812;12.872;2023-09-18T15:58:11;3.23;;;1.97;;
4674;SDS011;2351;50.812;12.872;2023-09-18T16:00:44;3.87;;;2.07;;
4674;SDS011;2351;50.812;12.872;2023-09-18T16:03:16;6.33;;;2.50;;
4674;SDS011;2351;50.812;12.872;2023-09-18T16:05:49;11.20;;;2.20;;
4674;SDS011;2351;50.812;12.872;2023-09-18T16:08:21;6.50;;;1.97;;
4674;SDS011;2351;50.812;12.872;2023-09-18T16:10:53;8.83;;;2.77;;
4674;SDS011;2351;50.812;12.872;2023-09-18T16:13:25;7.57;;;3.80;;
4674;SDS011;2351;50.812;12.872;2023-09-18T16:15:57;4.13;;;2.40;;
4674;SDS011;2351;50.812;12.872;2023-09-18T16:18:31;4.67;;;2.00;;
4674;SDS011;2351;50.812;12.872;2023-09-18T16:21:04;9.13;;;2.50;;
4674;SDS011;2351;50.812;12.872;2023-09-18T16:23:38;7.73;;;3.40;;
4674;SDS011;2351;50.812;12.872;2023-09-18T16:26:10;5.17;;;2.53;;
4674;SDS011;2351;50.812;12.872;2023-09-18T16:28:41;5.10;;;2.10;;
4674;SDS011;2351;50.812;12.872;2023-09-18T16:31:13;17.70;;;2.20;;
4674;SDS011;2351;50.812;12.872;2023-09-18T16:33:45;4.53;;;2.10;;
4674;SDS011;2351;50.812;12.872;2023-09-18T16:36:18;3.80;;;2.23;;
4674;SDS011;2351;50.812;12.872;2023-09-18T16:38:50;5.80;;;2.20;;
4674;SDS011;2351;50.812;12.872;2023-09-18T16:41:22;4.03;;;2.10;;
4674;SDS011;2351;50.812;12.872;2023-09-18T16:43:54;4.70;;;2.37;;
4674;SDS011;2351;50.812;12.872;2023-09-18T16:46:26;6.00;;;2.27;;
4674;SDS011;2351;50.812;12.872;2023-09-18T16:48:57;2.27;;;1.47;;
4674;SDS011;2351;50.812;12.872;2023-09-18T16:51:30;4.07;;;1.77;;
4674;SDS011;2351;50.812;12.872;2023-09-18T16:54:02;2.27;;;1.37;;
4674;SDS011;2351;50.812;12.872;2023-09-18T16:56:34;6.93;;;2.00;;
4674;SDS011;2351;50.812;12.872;2023-09-18T16:59:06;4.33;;;1.90;;
4674;SDS011;2351;50.812;12.872;2023-09-18T17:01:38;2.53;;;1.43;;
4674;SDS011;2351;50.812;12.872;2023-09-18T17:04:10;8.47;;;2.20;;
4674;SDS011;2351;50.812;12.872;2023-09-18T17:06:45;2.63;;;1.50;;
4674;SDS011;2351;50.812;12.872;2023-09-18T17:09:17;5.03;;;1.87;;
4674;SDS011;2351;50.812;12.872;2023-09-18T17:11:49;3.13;;;1.40;;
4674;SDS011;2351;50.812;12.872;2023-09-18T17:14:20;6.30;;;1.70;;
4674;SDS011;2351;50.812;12.872;2023-09-18T17:16:52;5.53;;;1.57;;
4674;SDS011;2351;50.812;12.872;2023-09-18T17:19:24;9.63;;;1.40;;
4674;SDS011;2351;50.812;12.872;2023-09-18T17:21:57;5.33;;;1.80;;